Batavia, NY

8:26 PM EDT on August 21, 2014 (GMT -0400)
Dansville Municipal | Change Station
CLOSE
Current Station
Airport
Location: Dansville,
Elevation: 659 ft
Nearby Weather Stations

Elev 659 ft 42.57 °N, 77.71 °W | Updated 32 minutes ago

Clear
Clear
74 °F
Feels Like 74 °F
N
0
Wind Variable Wind from North

Today
High -- | Low -- °F
--% Chance of Precip.
Yesterday
High -- | Low -- °F
Precip. -- in
6:25 AM 8:05 PM
Waning Crescent, 11% visible
Pressure 30.00 in
Visibility 10.0 miles
Clouds Clear
Dew Point 64 °F
Humidity 71%
Rainfall 0.00 in
Snow Depth Not available.
UV 0 out of 12
Pollen 7.10 out of 12
Air Quality Not available.
Flu Activity Not available.
METAR KDSV 212354Z AUTO 00000KT 10SM CLR 23/18 A2998 RMK AO2 SLP157 T02330178 10289 20233 53012

More Conditions Fewer Conditions

Pressure 30.00 in
Visibility 10.0 miles
Clouds Clear
Dew Point 64 °F
Humidity 71%
Rainfall 0.00 in
Snow Depth Not available.
UV 0 out of 12
Pollen 7.10 out of 12
Air Quality Not available.
Flu Activity Not available.
METAR KDSV 212354Z AUTO 00000KT 10SM CLR 23/18 A2998 RMK AO2 SLP157 T02330178 10289 20233 53012

More Conditions Fewer Conditions

10-Day Weather Forecast

Almanac

Astronomy

Aug. 21, 2014 Rise Set
Actual Time 6:25 AM EDT 8:05 PM EDT
Civil Twilight 5:55 AM EDT 8:35 PM EDT
Nautical Twilight 5:18 AM EDT 9:12 PM EDT
Astronomical Twilight 4:39 AM EDT 9:51 PM EDT
Moon 2:51 AM EDT (8/21) 5:35 PM EDT (8/21)
Length of Visible Light 14h 40m
Length of Day
13h 40m
Tomorrow will be 2m 42s shorter.
Waning Crescent, 11% of the Moon is Illuminated
Today
Waning Crescent
Aug 25
New
Sep 2
First Quarter
Sep 8
Full
Sep 15
Last Quarter

Today's Extremes

State Highs State Lows

Community

WunderPhotos

Upload Photos

1,746,075 photos uploaded!

Nearby

Air Quality

  Air Quality AQ Index Pollutant
Yesterday Good
OZONE
Yesterday Good
PM2.5
Thursday Moderate
OZONE
Thursday Good
PM2.5
Friday Good
OZONE
Friday Good
PM2.5

Snow Depth

Station Depth Elevation
No new snow has been reported.

Earthquake Activity

City Distance Mag. Time & Date
No recent earthquake activity has been reported nearby.
Minimum magnitude displayed is 2.5.

Coastal Water Temperatures

Place Temperature
Buffalo, NY 72.0 °F

Nearby Weather Stations